Time;durP1;ratioP1;P1;durP2;ratioP2;P2;SDS_P1;SDS_P2;PMS_P1;PMS_P2;Temp;Humidity;BMP_temperature;BMP_pressure;BME280_temperature;BME280_humidity;BME280_pressure;Samples;Min_cycle;Max_cycle;Signal;HPM_P1;HPM_P2
2021/11/01 00:00:46;;;;;;;24.73;15.37;;;9.40;99.50;;;;;;5111179;28;20200;-69
2021/11/01 00:03:13;;;;;;;24.20;16.47;;;9.30;99.70;;;;;;5105782;27;20219;-67
2021/11/01 00:05:40;;;;;;;26.60;16.83;;;9.30;99.90;;;;;;5119653;27;20221;-67
2021/11/01 00:08:07;;;;;;;24.67;14.90;;;10.00;99.90;;;;;;5102420;28;20205;-67
2021/11/01 00:10:35;;;;;;;29.37;15.57;;;9.20;99.90;;;;;;5112672;28;20703;-67
2021/11/01 00:13:02;;;;;;;26.33;16.70;;;9.20;99.90;;;;;;5112315;28;20214;-67
2021/11/01 00:15:29;;;;;;;26.33;16.37;;;9.10;99.90;;;;;;5112287;28;20270;-67
2021/11/01 00:17:57;;;;;;;26.67;15.60;;;9.10;99.90;;;;;;5112142;27;20204;-67
2021/11/01 00:20:24;;;;;;;24.40;15.30;;;9.00;99.90;;;;;;5112463;28;20208;-68
2021/11/01 00:22:51;;;;;;;25.73;16.63;;;9.00;99.90;;;;;;5111673;28;20204;-67
2021/11/01 00:25:20;;;;;;;24.80;16.00;;;9.00;99.90;;;;;;5100863;27;20203;-68
2021/11/01 00:27:47;;;;;;;27.90;16.60;;;9.00;99.90;;;;;;5123286;27;20238;-67
2021/11/01 00:30:14;;;;;;;21.77;16.50;;;8.90;99.90;;;;;;5112866;28;20234;-68
2021/11/01 00:32:42;;;;;;;22.10;15.80;;;8.90;99.90;;;;;;5103896;28;20207;-68
2021/11/01 00:35:10;;;;;;;26.17;15.53;;;8.90;99.90;;;;;;5119347;28;20265;-68
2021/11/01 00:37:37;;;;;;;23.63;15.60;;;8.80;99.90;;;;;;5113216;28;20715;-67
2021/11/01 00:40:05;;;;;;;26.87;15.60;;;8.80;99.90;;;;;;5110217;28;20208;-67
2021/11/01 00:42:32;;;;;;;27.37;16.23;;;8.80;99.90;;;;;;5113059;28;20210;-68
2021/11/01 00:45:00;;;;;;;28.63;16.57;;;8.80;99.90;;;;;;5112197;28;20230;-66
2021/11/01 00:47:27;;;;;;;25.30;15.37;;;8.70;99.90;;;;;;5127241;28;20204;-67
2021/11/01 00:49:54;;;;;;;23.70;15.03;;;8.70;99.90;;;;;;5126597;28;20691;-66
2021/11/01 00:52:26;;;;;;;24.87;15.53;;;8.70;99.90;;;;;;5112147;28;20264;-67
2021/11/01 00:54:58;;;;;;;25.70;16.53;;;8.70;99.90;;;;;;5111905;28;20192;-68
2021/11/01 00:57:25;;;;;;;26.77;16.97;;;8.60;99.90;;;;;;5119493;28;20968;-68
2021/11/01 00:59:52;;;;;;;24.93;17.03;;;8.60;99.90;;;;;;5110820;28;20700;-68
2021/11/01 01:02:19;;;;;;;27.50;15.73;;;8.50;99.90;;;;;;5106016;28;20536;-68
2021/11/01 01:04:45;;;;;;;23.83;16.40;;;8.50;99.90;;;;;;5111073;28;20241;-67
2021/11/01 01:07:12;;;;;;;26.10;16.87;;;8.50;99.90;;;;;;5114304;28;20578;-67
2021/11/01 01:09:40;;;;;;;25.53;16.07;;;8.40;99.90;;;;;;5108048;28;20208;-68
2021/11/01 01:12:08;;;;;;;26.27;16.97;;;8.40;99.90;;;;;;5116338;28;20295;-66
2021/11/01 01:14:41;;;;;;;27.53;17.00;;;8.30;99.90;;;;;;5116057;28;20550;-67
2021/11/01 01:17:08;;;;;;;22.90;15.67;;;8.30;99.90;;;;;;5103259;28;20671;-68
2021/11/01 01:19:44;;;;;;;25.20;16.93;;;8.30;99.90;;;;;;5116009;28;20207;-68
2021/11/01 01:22:13;;;;;;;28.27;16.00;;;8.30;99.90;;;;;;5115560;28;20210;-67
2021/11/01 01:24:42;;;;;;;25.93;16.47;;;8.20;99.90;;;;;;5115649;28;20220;-67
2021/11/01 01:27:08;;;;;;;26.80;17.00;;;8.20;99.90;;;;;;5114491;28;20266;-67
2021/11/01 01:29:35;;;;;;;23.73;16.30;;;8.20;99.90;;;;;;5118873;27;20575;-67
2021/11/01 01:32:02;;;;;;;27.27;16.80;;;8.10;99.90;;;;;;5117199;27;20254;-67
2021/11/01 01:34:29;;;;;;;30.20;17.03;;;8.10;99.90;;;;;;5121532;27;20215;-67
2021/11/01 01:36:56;;;;;;;26.10;16.87;;;8.10;99.90;;;;;;5130461;27;20298;-68
2021/11/01 01:39:23;;;;;;;29.63;17.17;;;8.10;99.90;;;;;;5116394;28;20212;-68
2021/11/01 01:41:52;;;;;;;27.40;17.30;;;8.10;99.90;;;;;;5115980;28;20214;-67
2021/11/01 01:44:19;;;;;;;23.47;16.30;;;8.00;99.90;;;;;;5105975;28;20258;-68
2021/11/01 01:46:46;;;;;;;24.87;16.57;;;8.00;99.90;;;;;;5116471;28;20566;-67
2021/11/01 01:49:13;;;;;;;25.67;16.43;;;8.00;99.90;;;;;;5130283;27;20215;-67
2021/11/01 01:51:39;;;;;;;26.53;16.33;;;8.00;99.90;;;;;;5116275;28;20214;-67
2021/11/01 01:54:06;;;;;;;24.43;15.80;;;7.90;99.90;;;;;;5116202;28;20678;-67
2021/11/01 01:56:33;;;;;;;24.90;17.43;;;7.90;99.90;;;;;;5114594;28;20230;-67
2021/11/01 01:59:11;;;;;;;24.23;16.37;;;7.90;99.90;;;;;;5126357;27;20256;-67
2021/11/01 02:01:38;;;;;;;24.20;16.50;;;7.90;99.90;;;;;;5109546;27;20215;-67
2021/11/01 02:04:05;;;;;;;26.83;16.53;;;7.90;99.90;;;;;;5115100;28;20261;-67
2021/11/01 02:06:42;;;;;;;24.13;16.20;;;7.90;99.90;;;;;;5114403;28;20616;-67
2021/11/01 02:09:14;;;;;;;28.60;16.17;;;7.90;99.90;;;;;;5106406;28;20199;-68
2021/11/01 02:11:48;;;;;;;23.17;16.23;;;7.80;99.90;;;;;;5114548;28;20196;-68
2021/11/01 02:14:19;;;;;;;26.10;15.97;;;7.80;99.90;;;;;;5106377;27;20203;-67
2021/11/01 02:16:49;;;;;;;24.90;16.27;;;7.80;99.90;;;;;;5117538;27;20563;-67
2021/11/01 02:19:18;;;;;;;27.90;16.03;;;7.80;99.90;;;;;;5106371;28;20199;-67
2021/11/01 02:21:53;;;;;;;25.00;16.53;;;7.80;99.90;;;;;;5117159;27;20208;-67
2021/11/01 02:24:42;;;;;;;28.67;15.97;;;7.70;99.90;;;;;;5122912;27;20223;-67
2021/11/01 02:27:12;;;;;;;25.70;15.73;;;7.70;99.90;;;;;;5114780;28;20563;-68
2021/11/01 02:29:43;;;;;;;24.77;16.17;;;7.70;99.90;;;;;;5113590;28;20208;-67
2021/11/01 02:32:12;;;;;;;28.33;16.30;;;7.70;99.90;;;;;;5101521;27;20210;-67
2021/11/01 02:34:40;;;;;;;24.73;16.57;;;7.60;99.90;;;;;;5109198;28;20200;-68
2021/11/01 02:37:08;;;;;;;23.60;15.20;;;7.60;99.90;;;;;;5114790;28;20271;-67
2021/11/01 02:39:46;;;;;;;26.60;16.93;;;7.60;99.90;;;;;;5114876;28;20206;-67
2021/11/01 02:42:16;;;;;;;25.43;15.73;;;7.50;99.90;;;;;;5115707;28;20755;-67
2021/11/01 02:44:55;;;;;;;24.67;15.50;;;7.50;99.90;;;;;;5108545;28;20235;-67
2021/11/01 02:47:22;;;;;;;29.40;17.17;;;7.50;99.90;;;;;;5115444;28;20235;-67
2021/11/01 02:49:50;;;;;;;21.47;14.80;;;7.50;99.90;;;;;;5128290;27;20288;-68
2021/11/01 02:52:17;;;;;;;24.47;15.50;;;7.50;99.90;;;;;;5114358;28;20227;-67
2021/11/01 02:54:43;;;;;;;23.17;15.67;;;7.50;99.90;;;;;;5114885;28;20678;-67
2021/11/01 02:57:10;;;;;;;24.60;16.90;;;7.40;99.90;;;;;;5122886;27;20223;-67
2021/11/01 02:59:39;;;;;;;27.53;16.63;;;7.40;99.90;;;;;;5117148;27;20232;-67
2021/11/01 03:02:06;;;;;;;23.67;15.43;;;7.40;99.90;;;;;;5125922;27;20214;-69
2021/11/01 03:04:33;;;;;;;22.90;16.07;;;7.30;99.90;;;;;;5110981;28;20224;-67
2021/11/01 03:07:01;;;;;;;26.40;15.80;;;7.30;99.90;;;;;;5113194;28;20210;-67
2021/11/01 03:09:30;;;;;;;30.00;16.17;;;7.30;99.90;;;;;;5113920;28;20576;-67
2021/11/01 03:11:59;;;;;;;27.37;16.80;;;7.30;99.90;;;;;;5113739;28;20199;-67
2021/11/01 03:14:38;;;;;;;22.50;15.57;;;7.30;99.90;;;;;;5107974;28;20303;-68
2021/11/01 03:17:07;;;;;;;27.97;16.47;;;7.30;99.90;;;;;;5083121;28;20203;-67
2021/11/01 03:19:38;;;;;;;24.60;15.23;;;7.30;99.90;;;;;;5113230;28;20204;-68
2021/11/01 03:22:06;;;;;;;25.33;15.27;;;7.30;99.90;;;;;;5126745;27;20664;-68
2021/11/01 03:24:35;;;;;;;24.00;15.77;;;7.30;99.90;;;;;;5113424;28;20243;-67
2021/11/01 03:27:04;;;;;;;24.43;16.10;;;7.20;99.90;;;;;;5112663;28;20203;-67
2021/11/01 03:29:32;;;;;;;24.07;15.73;;;7.20;99.90;;;;;;5112124;28;20211;-67
2021/11/01 03:32:01;;;;;;;26.50;16.20;;;7.20;99.90;;;;;;5126376;27;20208;-67
2021/11/01 03:34:32;;;;;;;25.53;15.67;;;7.20;99.90;;;;;;5112625;28;20295;-67
2021/11/01 03:37:08;;;;;;;22.47;15.70;;;7.20;99.90;;;;;;5113936;27;20539;-67
2021/11/01 03:39:36;;;;;;;26.53;15.63;;;7.20;99.90;;;;;;5112675;28;20978;-65
2021/11/01 03:42:04;;;;;;;26.40;15.27;;;7.20;99.90;;;;;;5112613;28;20258;-67
2021/11/01 03:44:33;;;;;;;22.33;14.67;;;7.10;99.90;;;;;;5112653;28;20223;-66
2021/11/01 03:47:03;;;;;;;23.10;15.43;;;7.10;99.90;;;;;;5112075;28;20231;-66
2021/11/01 03:49:33;;;;;;;27.73;16.37;;;7.10;99.90;;;;;;5127409;27;20620;-67
2021/11/01 03:52:09;;;;;;;26.63;15.73;;;7.10;99.90;;;;;;5113718;28;20212;-67
2021/11/01 03:54:38;;;;;;;24.07;15.57;;;7.10;99.90;;;;;;5112792;28;20227;-67
2021/11/01 03:57:07;;;;;;;27.67;15.77;;;7.00;99.90;;;;;;5122988;27;20231;-66
2021/11/01 03:59:34;;;;;;;22.80;15.83;;;7.00;99.90;;;;;;5116859;27;20316;-67
2021/11/01 04:02:01;;;;;;;25.60;16.37;;;7.10;99.90;;;;;;5105577;28;20208;-67
2021/11/01 04:04:28;;;;;;;25.07;16.03;;;7.00;99.90;;;;;;5112827;28;20220;-67
2021/11/01 04:06:57;;;;;;;24.87;16.67;;;7.00;99.90;;;;;;5112982;28;20211;-67
2021/11/01 04:09:24;;;;;;;23.97;15.27;;;6.90;99.90;;;;;;5112601;28;20219;-68
2021/11/01 04:11:51;;;;;;;29.00;15.93;;;6.90;99.90;;;;;;5114454;27;20205;-68
2021/11/01 04:14:22;;;;;;;27.40;15.80;;;6.90;99.90;;;;;;5113359;28;20648;-66
2021/11/01 04:16:55;;;;;;;23.93;15.17;;;6.80;99.90;;;;;;5109997;28;20717;-67
2021/11/01 04:19:42;;;;;;;21.50;14.90;;;6.90;99.90;;;;;;5112671;28;20661;-67
2021/11/01 04:22:11;;;;;;;27.50;16.00;;;6.80;99.90;;;;;;5112990;28;20200;-67
2021/11/01 04:24:38;;;;;;;26.67;16.07;;;6.80;99.90;;;;;;5124886;27;20589;-67
2021/11/01 04:27:05;;;;;;;28.47;16.00;;;6.70;99.90;;;;;;5113624;27;20195;-67
2021/11/01 04:29:33;;;;;;;25.37;15.53;;;6.70;99.90;;;;;;5112159;28;20298;-67
2021/11/01 04:32:24;;;;;;;24.97;17.17;;;6.70;99.90;;;;;;5114736;28;20200;-67
2021/11/01 04:34:56;;;;;;;24.87;16.03;;;6.70;99.90;;;;;;5113148;28;20233;-67
2021/11/01 04:37:24;;;;;;;25.80;16.67;;;6.70;99.90;;;;;;5111291;28;20210;-67
2021/11/01 04:40:05;;;;;;;24.03;16.60;;;6.70;99.90;;;;;;5113681;28;20208;-68
2021/11/01 04:53:50;;;;;;;23.83;15.03;;;6.50;99.90;;;;;;5033633;28;20265;-67
2021/11/01 04:56:21;;;;;;;26.53;16.77;;;6.50;99.90;;;;;;5080840;28;20224;-68
2021/11/01 04:58:48;;;;;;;27.03;15.53;;;6.50;99.90;;;;;;5116868;28;20227;-67
2021/11/01 05:01:17;;;;;;;26.40;16.17;;;6.50;99.90;;;;;;5114571;27;20456;-67
2021/11/01 05:03:48;;;;;;;24.43;16.10;;;6.40;99.90;;;;;;5128548;27;20730;-68
2021/11/01 05:06:21;;;;;;;26.43;16.50;;;6.40;99.90;;;;;;5113769;27;20234;-68
2021/11/01 05:08:55;;;;;;;21.60;15.73;;;6.40;99.90;;;;;;5128819;27;20210;-68
2021/11/01 05:11:29;;;;;;;22.13;15.13;;;6.30;99.90;;;;;;5110603;28;20199;-68
2021/11/01 05:13:56;;;;;;;26.60;16.57;;;6.30;99.90;;;;;;5116151;28;20215;-68
2021/11/01 05:16:33;;;;;;;24.10;15.67;;;6.30;99.90;;;;;;5116260;27;20316;-67
2021/11/01 05:19:07;;;;;;;23.97;15.10;;;6.30;99.90;;;;;;5128072;27;20200;-67
2021/11/01 05:21:38;;;;;;;25.80;16.17;;;6.30;99.90;;;;;;5115715;28;20207;-68
2021/11/01 05:24:09;;;;;;;26.83;16.97;;;6.30;99.90;;;;;;5116247;28;20689;-68
2021/11/01 05:26:53;;;;;;;22.90;15.73;;;6.30;99.90;;;;;;5130010;27;20199;-67
2021/11/01 05:29:20;;;;;;;28.73;15.80;;;6.30;99.90;;;;;;5108116;28;20263;-67
2021/11/01 05:31:54;;;;;;;27.43;16.43;;;6.20;99.90;;;;;;5129791;27;20655;-67
2021/11/01 05:34:21;;;;;;;21.57;14.23;;;6.20;99.90;;;;;;5121878;27;20267;-68
2021/11/01 05:36:47;;;;;;;25.57;16.00;;;6.20;99.90;;;;;;5114246;28;20303;-68
2021/11/01 05:39:16;;;;;;;23.27;15.57;;;6.20;99.90;;;;;;5115661;28;20212;-68
2021/11/01 05:41:43;;;;;;;25.13;16.03;;;6.10;99.90;;;;;;5115037;28;20316;-68
2021/11/01 05:44:10;;;;;;;24.40;15.97;;;6.10;99.90;;;;;;5115759;27;20203;-68
2021/11/01 05:46:38;;;;;;;24.27;16.07;;;6.10;99.90;;;;;;5115205;28;20227;-68
2021/11/01 05:49:06;;;;;;;24.33;16.47;;;6.00;99.90;;;;;;5115782;28;20231;-69
2021/11/01 05:51:34;;;;;;;24.67;16.50;;;6.10;99.90;;;;;;5118739;27;20560;-69
2021/11/01 05:54:05;;;;;;;23.33;15.53;;;6.00;99.90;;;;;;5118437;27;20215;-68
2021/11/01 05:56:44;;;;;;;23.57;14.93;;;6.00;99.90;;;;;;5114958;28;20216;-69
2021/11/01 06:05:00;;;;;;;23.23;15.40;;;6.00;99.90;;;;;;5113383;28;20683;-68
2021/11/01 06:07:33;;;;;;;24.43;15.93;;;6.00;99.90;;;;;;5105778;28;20210;-68
2021/11/01 06:10:07;;;;;;;25.40;15.67;;;6.00;99.90;;;;;;5114933;28;20196;-68
2021/11/01 06:15:22;;;;;;;22.83;14.93;;;6.10;99.90;;;;;;5114854;28;20687;-67
2021/11/01 06:17:49;;;;;;;23.77;15.03;;;6.10;99.90;;;;;;5121497;27;20199;-67
2021/11/01 06:20:17;;;;;;;27.27;15.83;;;6.10;99.90;;;;;;5116656;27;20208;-67
2021/11/01 06:22:44;;;;;;;25.30;15.00;;;6.20;99.90;;;;;;5121832;27;20307;-68
2021/11/01 06:25:14;;;;;;;23.53;15.53;;;6.30;99.90;;;;;;5114705;28;20231;-68
2021/11/01 06:27:43;;;;;;;22.50;15.83;;;6.40;99.90;;;;;;5114936;27;20248;-68
2021/11/01 06:30:21;;;;;;;22.50;14.27;;;6.50;99.90;;;;;;5112494;27;20242;-67
2021/11/01 06:32:58;;;;;;;23.27;14.90;;;6.60;99.90;;;;;;5108412;28;20208;-67
2021/11/01 06:43:56;;;;;;;20.77;14.13;;;7.10;99.90;;;;;;5089143;27;20678;-73
2021/11/01 06:52:15;;;;;;;22.30;14.90;;;7.40;99.90;;;;;;5111597;27;20211;-73
2021/11/01 06:55:03;;;;;;;25.20;15.90;;;7.50;99.90;;;;;;5112839;27;20305;-71
2021/11/01 06:57:43;;;;;;;22.20;14.37;;;7.50;99.90;;;;;;5116129;28;20771;-72
2021/11/01 07:14:18;;;;;;;18.87;12.80;;;8.70;99.90;;;;;;5112303;27;20211;-71
2021/11/01 07:16:49;;;;;;;20.43;13.87;;;8.90;99.90;;;;;;5107388;28;20192;-69
2021/11/01 07:19:26;;;;;;;19.03;13.40;;;8.90;99.90;;;;;;5123295;27;20233;-71
2021/11/01 07:22:14;;;;;;;24.40;14.47;;;9.00;99.90;;;;;;5111308;27;20210;-68
2021/11/01 08:50:31;;;;;;;13.18;11.15;;;22.90;62.80;;;;;;5055722;28;20201;-68
2021/11/01 09:04:04;;;;;;;16.42;11.48;;;30.60;38.10;;;;;;5050889;28;20213;-68
2021/11/01 09:06:49;;;;;;;12.10;10.90;;;31.40;36.70;;;;;;5054475;28;20205;-68
2021/11/01 09:20:21;;;;;;;13.07;11.18;;;34.30;31.80;;;;;;5000158;28;20231;-68
2021/11/01 09:25:42;;;;;;;13.52;10.60;;;35.50;29.80;;;;;;5055211;28;20198;-67
2021/11/01 09:28:13;;;;;;;14.90;11.10;;;36.00;29.50;;;;;;5056571;28;20201;-67
2021/11/01 09:36:20;;;;;;;11.93;10.73;;;37.60;28.20;;;;;;5063262;28;20227;-67
2021/11/01 09:39:05;;;;;;;14.25;10.95;;;38.00;27.10;;;;;;5059378;28;20217;-69
2021/11/01 09:41:33;;;;;;;11.82;10.63;;;38.00;26.80;;;;;;5060651;28;20572;-68
2021/11/01 09:44:04;;;;;;;12.45;11.23;;;38.50;26.80;;;;;;5067037;28;20623;-69
2021/11/01 09:46:32;;;;;;;12.45;11.10;;;39.00;26.40;;;;;;5060476;28;20293;-69
2021/11/01 09:49:14;;;;;;;11.93;10.75;;;39.20;25.80;;;;;;5052044;28;20293;-68
2021/11/01 09:51:42;;;;;;;12.40;11.10;;;39.10;25.80;;;;;;5050667;28;20202;-68
2021/11/01 09:54:19;;;;;;;15.15;11.18;;;38.60;25.90;;;;;;5041957;28;20737;-68
2021/11/01 09:56:55;;;;;;;12.43;10.88;;;38.70;26.10;;;;;;5040472;28;20231;-68
2021/11/01 09:59:24;;;;;;;12.27;10.98;;;38.90;25.80;;;;;;5047918;28;20202;-67
2021/11/01 10:01:52;;;;;;;11.75;10.65;;;38.30;25.60;;;;;;5049217;28;20225;-67
2021/11/01 10:04:22;;;;;;;12.23;11.00;;;38.20;26.00;;;;;;5040568;28;20214;-67
2021/11/01 10:06:59;;;;;;;12.10;10.73;;;38.40;25.80;;;;;;5043921;28;20217;-67
2021/11/01 10:09:30;;;;;;;12.10;10.90;;;38.90;25.80;;;;;;5052388;28;20693;-68
2021/11/01 10:11:56;;;;;;;11.70;10.50;;;39.70;25.40;;;;;;5039640;28;20252;-67
2021/11/01 10:14:25;;;;;;;13.10;10.48;;;40.50;24.80;;;;;;5043711;28;20216;-67
2021/11/01 10:19:41;;;;;;;12.38;11.18;;;42.20;24.00;;;;;;5049816;28;20277;-68
2021/11/01 10:22:10;;;;;;;11.82;10.70;;;42.70;23.60;;;;;;5053244;28;20232;-70
2021/11/01 10:24:40;;;;;;;11.55;10.40;;;43.10;23.20;;;;;;5050848;28;20228;-68
2021/11/01 10:27:08;;;;;;;13.85;10.93;;;43.10;23.00;;;;;;5045972;28;20232;-69
2021/11/01 10:29:51;;;;;;;12.57;10.75;;;42.90;23.20;;;;;;5051325;28;20288;-68
2021/11/01 10:32:28;;;;;;;11.52;10.32;;;43.10;23.00;;;;;;5041661;28;20676;-69
2021/11/01 10:35:14;;;;;;;12.70;10.98;;;42.90;23.00;;;;;;5040560;28;20205;-68
2021/11/01 10:37:55;;;;;;;12.02;10.60;;;43.10;23.00;;;;;;5052218;28;20193;-68
2021/11/01 10:40:24;;;;;;;11.65;10.23;;;43.10;22.90;;;;;;5046295;28;20596;-69
2021/11/01 10:42:50;;;;;;;12.60;10.32;;;42.70;22.70;;;;;;5046152;28;20255;-69
2021/11/01 10:45:31;;;;;;;11.45;10.25;;;42.60;22.90;;;;;;5045828;28;20206;-69
2021/11/01 10:57:09;;;;;;;10.90;9.80;;;42.60;22.90;;;;;;5052500;28;20228;-70
2021/11/01 11:11:12;;;;;;;13.10;10.45;;;43.40;22.20;;;;;;5033920;28;20716;-68
2021/11/01 11:13:44;;;;;;;11.50;10.30;;;43.10;22.70;;;;;;5051933;28;20265;-68
2021/11/01 11:16:21;;;;;;;11.80;10.63;;;42.40;23.20;;;;;;5052095;28;20206;-68
2021/11/01 11:18:56;;;;;;;11.50;10.40;;;42.20;23.00;;;;;;5051590;28;20205;-68
2021/11/01 11:21:46;;;;;;;12.23;10.63;;;42.30;22.90;;;;;;5045537;28;20226;-69
2021/11/01 11:30:24;;;;;;;10.90;9.77;;;43.30;22.60;;;;;;5051564;28;20205;-68
2021/11/01 11:38:44;;;;;;;12.63;9.77;;;44.40;22.10;;;;;;5038822;28;20252;-69
2021/11/01 11:44:06;;;;;;;11.82;10.32;;;42.30;21.90;;;;;;5050432;28;20272;-67
2021/11/01 11:49:24;;;;;;;13.10;10.60;;;35.60;24.90;;;;;;5050642;28;20285;-69
2021/11/01 11:51:56;;;;;;;12.52;10.23;;;32.40;27.30;;;;;;5050881;28;20199;-68
2021/11/01 11:54:36;;;;;;;11.77;9.57;;;29.80;29.30;;;;;;5046735;28;20241;-66
2021/11/01 11:57:04;;;;;;;13.30;9.68;;;27.70;31.50;;;;;;5051315;28;20650;-68
2021/11/01 11:59:36;;;;;;;11.85;10.30;;;26.00;33.50;;;;;;5041751;28;20213;-67
2021/11/01 12:02:07;;;;;;;12.90;9.93;;;24.30;35.70;;;;;;5051671;28;20224;-70
2021/11/01 12:04:37;;;;;;;12.80;9.85;;;22.90;37.90;;;;;;5050811;28;20289;-69
2021/11/01 12:07:06;;;;;;;11.18;9.30;;;21.80;39.30;;;;;;5042442;28;20202;-69
2021/11/01 12:09:40;;;;;;;12.13;9.30;;;21.00;40.80;;;;;;5045030;28;20644;-69
2021/11/01 12:12:22;;;;;;;11.50;9.38;;;20.20;42.00;;;;;;5051036;28;20195;-69
2021/11/01 12:17:39;;;;;;;11.38;9.35;;;18.60;44.80;;;;;;5008914;28;20199;-69
2021/11/01 12:20:10;;;;;;;11.40;9.15;;;17.90;46.40;;;;;;5049132;28;20290;-69
2021/11/01 12:22:43;;;;;;;11.27;8.77;;;17.40;47.50;;;;;;5038800;28;20242;-70
2021/11/01 12:25:17;;;;;;;12.70;8.80;;;17.00;48.50;;;;;;5041174;28;20736;-69
2021/11/01 12:27:55;;;;;;;13.53;9.07;;;16.60;49.40;;;;;;5044484;28;20283;-69
2021/11/01 12:30:27;;;;;;;11.90;9.07;;;16.30;50.30;;;;;;5036172;28;20271;-69
2021/11/01 12:32:54;;;;;;;11.90;8.53;;;16.10;51.60;;;;;;5036166;28;20207;-70
2021/11/01 12:35:25;;;;;;;12.43;8.80;;;15.90;51.40;;;;;;5043817;28;20212;-70
2021/11/01 12:37:55;;;;;;;11.77;9.17;;;15.70;52.70;;;;;;5036716;28;20202;-69
2021/11/01 12:40:30;;;;;;;12.27;9.33;;;15.60;52.70;;;;;;5032978;28;20296;-69
2021/11/01 12:43:22;;;;;;;10.73;9.13;;;15.50;53.20;;;;;;5036500;28;20237;-69
2021/11/01 12:57:13;;;;;;;13.57;8.73;;;15.00;55.60;;;;;;5034544;28;20303;-69
2021/11/01 12:59:43;;;;;;;12.60;8.43;;;15.00;55.70;;;;;;5036751;28;20247;-69
2021/11/01 13:02:13;;;;;;;12.10;8.70;;;14.90;55.70;;;;;;5043024;28;20225;-67
2021/11/01 13:04:41;;;;;;;11.03;8.63;;;14.90;55.90;;;;;;5035888;28;20218;-68
2021/11/01 13:07:21;;;;;;;10.40;8.27;;;14.80;56.20;;;;;;5042828;28;20546;-67
2021/11/01 13:09:54;;;;;;;10.63;8.27;;;14.80;56.40;;;;;;5045965;28;20282;-67
2021/11/01 13:12:39;;;;;;;11.17;8.87;;;14.80;56.80;;;;;;5035694;28;20295;-66
2021/11/01 13:18:10;;;;;;;10.57;7.93;;;14.70;57.20;;;;;;5013978;28;20210;-67
2021/11/01 13:20:39;;;;;;;10.60;8.77;;;14.70;57.20;;;;;;5037623;28;20199;-66
2021/11/01 13:23:07;;;;;;;10.60;8.27;;;14.70;57.20;;;;;;5043521;28;20576;-70
2021/11/01 13:25:42;;;;;;;11.10;8.37;;;14.60;57.30;;;;;;5038192;28;20206;-67
2021/11/01 13:36:48;;;;;;;11.40;8.60;;;14.50;58.00;;;;;;5039618;28;20603;-66
2021/11/01 13:39:24;;;;;;;10.60;8.07;;;14.40;58.10;;;;;;5041043;28;20306;-67
2021/11/01 13:41:51;;;;;;;10.13;8.10;;;14.40;58.20;;;;;;5045501;28;20242;-66
2021/11/01 13:44:24;;;;;;;10.93;7.93;;;14.40;58.00;;;;;;5039049;28;20624;-66
2021/11/01 13:46:53;;;;;;;9.20;7.77;;;14.30;58.00;;;;;;5045589;28;20577;-67
2021/11/01 13:49:20;;;;;;;10.20;8.10;;;14.30;58.20;;;;;;5050629;28;20219;-68
2021/11/01 13:51:50;;;;;;;9.73;7.93;;;14.30;58.20;;;;;;5035815;28;20213;-68
2021/11/01 13:54:28;;;;;;;13.33;9.67;;;14.30;58.20;;;;;;5037430;28;20274;-67
2021/11/01 13:57:00;;;;;;;10.10;7.70;;;14.30;58.40;;;;;;5037322;28;20250;-67
2021/11/01 13:59:44;;;;;;;11.73;7.57;;;14.20;58.40;;;;;;5043877;28;20233;-67
2021/11/01 14:13:19;;;;;;;9.60;7.43;;;14.20;58.60;;;;;;5046079;28;20405;-72
2021/11/01 14:18:54;;;;;;;10.53;8.07;;;14.10;58.90;;;;;;5048819;28;20205;-72
2021/11/01 14:33:02;;;;;;;10.90;7.83;;;13.90;60.70;;;;;;5040869;28;20613;-71
2021/11/01 14:35:51;;;;;;;10.67;8.37;;;13.90;61.00;;;;;;5052701;28;20565;-70
2021/11/01 15:26:18;;;;;;;12.13;9.17;;;13.30;65.10;;;;;;5040005;28;20206;-70
2021/11/01 15:40:21;;;;;;;11.17;8.93;;;13.10;66.60;;;;;;5025608;28;20234;-71
2021/11/01 16:16:11;;;;;;;12.83;9.53;;;12.60;70.80;;;;;;5047055;28;20201;-72
2021/11/01 16:18:39;;;;;;;20.17;9.57;;;12.60;71.30;;;;;;5052445;28;20202;-72
2021/11/01 16:21:06;;;;;;;12.07;9.67;;;12.60;71.70;;;;;;5051667;28;20216;-71
2021/11/01 16:23:37;;;;;;;12.73;9.53;;;12.50;72.20;;;;;;5040389;28;20205;-71
2021/11/01 16:26:30;;;;;;;14.60;10.33;;;12.50;72.30;;;;;;5052466;28;20216;-73
2021/11/01 16:29:04;;;;;;;14.50;9.70;;;12.40;72.60;;;;;;5050285;28;20230;-72
2021/11/01 16:31:47;;;;;;;12.93;9.90;;;12.40;73.00;;;;;;5051184;28;20201;-71
2021/11/01 16:34:19;;;;;;;11.47;9.27;;;12.40;73.40;;;;;;5050218;28;20218;-71
2021/11/01 16:37:00;;;;;;;14.33;9.30;;;12.40;73.80;;;;;;5051243;28;20252;-72
2021/11/01 16:39:29;;;;;;;14.50;10.03;;;12.30;73.80;;;;;;5039789;28;20276;-72
2021/11/01 16:41:58;;;;;;;13.67;9.77;;;12.30;74.20;;;;;;5047901;28;20272;-72
2021/11/01 16:44:27;;;;;;;14.73;10.77;;;12.30;74.60;;;;;;5051469;28;20213;-72
2021/11/01 16:46:55;;;;;;;14.93;10.93;;;12.30;75.10;;;;;;5044649;28;20289;-70
2021/11/01 16:49:23;;;;;;;16.50;11.00;;;12.20;75.60;;;;;;5051715;28;20742;-70
2021/11/01 16:51:52;;;;;;;17.63;12.00;;;12.20;76.00;;;;;;5051726;28;20673;-71
2021/11/01 16:54:22;;;;;;;18.60;11.57;;;12.20;76.50;;;;;;5046425;28;20612;-70
2021/11/01 16:56:58;;;;;;;16.77;12.03;;;12.10;76.90;;;;;;5046842;28;20305;-71
2021/11/01 16:59:31;;;;;;;18.87;12.30;;;12.10;76.90;;;;;;5035804;28;20260;-70
2021/11/01 17:02:09;;;;;;;17.90;12.07;;;12.10;77.80;;;;;;5050049;28;20704;-71
2021/11/01 17:04:39;;;;;;;20.47;12.90;;;11.90;78.00;;;;;;5052176;28;20206;-69
2021/11/01 17:07:13;;;;;;;16.53;11.20;;;12.00;78.60;;;;;;5045381;28;20209;-70
2021/11/01 17:10:22;;;;;;;17.67;12.53;;;12.00;79.40;;;;;;5049757;28;20205;-71
2021/11/01 17:21:26;;;;;;;18.60;12.93;;;11.80;81.70;;;;;;5054693;28;20201;-69
2021/11/01 17:26:47;;;;;;;19.33;12.87;;;11.70;82.90;;;;;;5052497;28;20316;-70
2021/11/01 17:29:30;;;;;;;15.87;12.60;;;11.70;83.30;;;;;;5058453;28;20525;-70
2021/11/01 17:35:03;;;;;;;21.90;13.93;;;11.60;84.40;;;;;;5048301;28;20304;-69
2021/11/01 17:37:37;;;;;;;18.97;13.10;;;11.60;84.90;;;;;;5054302;28;20252;-68
2021/11/01 18:38:54;;;;;;;20.03;14.57;;;10.70;95.00;;;;;;5046172;28;20711;-67
2021/11/01 18:41:22;;;;;;;23.33;14.73;;;10.50;95.10;;;;;;5040152;28;20340;-70
2021/11/01 18:44:28;;;;;;;19.77;13.90;;;10.50;95.30;;;;;;5038102;28;20228;-69
2021/11/01 18:52:37;;;;;;;22.80;13.83;;;10.40;95.90;;;;;;5048129;28;20213;-68
2021/11/01 18:55:08;;;;;;;20.60;13.93;;;10.40;96.00;;;;;;5041184;28;20203;-70
2021/11/01 18:57:42;;;;;;;18.17;14.00;;;10.30;96.20;;;;;;5038438;28;20649;-70
2021/11/01 19:00:10;;;;;;;21.93;12.83;;;10.30;96.40;;;;;;5042469;28;20198;-69
2021/11/01 19:02:44;;;;;;;19.90;13.77;;;10.30;96.50;;;;;;5046343;28;20591;-69
2021/11/01 19:05:17;;;;;;;26.13;14.67;;;10.20;96.60;;;;;;5047260;28;20205;-68
2021/11/01 19:07:51;;;;;;;21.00;13.20;;;10.20;96.80;;;;;;5052969;28;20330;-68
2021/11/01 20:03:25;;;;;;;21.33;13.80;;;9.70;99.50;;;;;;5036915;28;20229;-68
2021/11/01 20:05:54;;;;;;;20.57;14.30;;;9.60;99.70;;;;;;5038867;28;20202;-70
2021/11/01 20:08:59;;;;;;;21.87;14.07;;;9.60;99.80;;;;;;5043223;28;20202;-68
2021/11/01 20:11:46;;;;;;;22.17;13.83;;;9.60;99.90;;;;;;5040567;28;20209;-66
2021/11/01 20:14:33;;;;;;;24.63;13.87;;;9.60;99.90;;;;;;5042174;28;20204;-67
2021/11/01 21:26:37;;;;;;;27.40;16.87;;;8.70;99.90;;;;;;5041755;28;20205;-69
2021/11/01 21:29:04;;;;;;;28.20;16.30;;;8.60;99.90;;;;;;5040856;28;20207;-69
2021/11/01 21:31:31;;;;;;;27.00;16.17;;;8.60;99.90;;;;;;5038909;28;20245;-70
2021/11/01 21:34:01;;;;;;;24.10;15.57;;;8.60;99.90;;;;;;5046286;28;20549;-69
2021/11/01 21:36:28;;;;;;;25.77;15.73;;;8.50;99.90;;;;;;5036085;28;20652;-69
2021/11/01 21:38:57;;;;;;;23.93;14.80;;;8.50;99.90;;;;;;5040930;28;20206;-70
2021/11/01 21:41:27;;;;;;;26.97;16.93;;;8.50;99.90;;;;;;5049770;28;20241;-70
2021/11/01 21:43:54;;;;;;;25.57;16.83;;;8.40;99.90;;;;;;5051662;28;20230;-70
2021/11/01 21:46:21;;;;;;;21.77;15.17;;;8.40;99.90;;;;;;5051814;28;20241;-69
2021/11/01 21:48:49;;;;;;;26.23;16.57;;;8.40;99.90;;;;;;5043768;28;20403;-70
2021/11/01 21:51:17;;;;;;;27.33;17.00;;;8.40;99.90;;;;;;5038513;28;20213;-68
2021/11/01 21:53:48;;;;;;;24.43;15.30;;;8.40;99.90;;;;;;5045507;28;20197;-67
2021/11/01 21:56:16;;;;;;;28.07;16.33;;;8.30;99.90;;;;;;5053138;28;20229;-67
2021/11/01 21:59:07;;;;;;;28.10;16.83;;;8.30;99.90;;;;;;5048557;28;20517;-68
2021/11/01 22:10:17;;;;;;;24.50;15.83;;;8.10;99.90;;;;;;5046167;28;20209;-68
2021/11/01 22:18:18;;;;;;;28.60;17.20;;;8.00;99.90;;;;;;5046575;28;20290;-68
2021/11/01 22:20:48;;;;;;;25.20;16.10;;;8.00;99.90;;;;;;5053241;28;20198;-68
2021/11/01 22:23:18;;;;;;;25.37;17.07;;;8.00;99.90;;;;;;5052858;28;20768;-67